Time;durP1;ratioP1;P1;durP2;ratioP2;P2;SDS_P1;SDS_P2;PMS_P1;PMS_P2;Temp;Humidity;BMP_temperature;BMP_pressure;BME280_temperature;BME280_humidity;BME280_pressure;Samples;Min_cycle;Max_cycle;Signal;HPM_P1;HPM_P2
2021/05/06 00:32:19;;;;;;;9.48;2.20;;;3.40;86.50;;;;;;4948714;28;20050;-70
2021/05/06 00:34:44;;;;;;;15.07;2.35;;;3.40;86.50;;;;;;4945631;28;20309;-70
2021/05/06 00:37:14;;;;;;;9.90;1.88;;;3.40;86.70;;;;;;4949081;28;20243;-70
2021/05/06 00:39:44;;;;;;;10.07;2.33;;;3.40;86.80;;;;;;4946801;28;20042;-69
2021/05/06 00:56:20;;;;;;;19.05;2.55;;;3.20;87.50;;;;;;4945230;28;20167;-69
2021/05/06 01:04:01;;;;;;;9.80;2.15;;;3.20;87.70;;;;;;4946288;28;20463;-69
2021/05/06 01:06:28;;;;;;;19.30;2.30;;;3.20;87.70;;;;;;4948611;28;20028;-69
2021/05/06 01:08:58;;;;;;;10.80;2.28;;;3.30;87.50;;;;;;4948006;28;20083;-72
2021/05/06 01:14:09;;;;;;;15.55;2.53;;;3.10;88.00;;;;;;4947337;28;20424;-69
2021/05/06 01:16:34;;;;;;;9.55;2.10;;;3.10;87.90;;;;;;4949447;28;20033;-69
2021/05/06 01:19:00;;;;;;;13.05;2.40;;;3.00;88.00;;;;;;4948999;29;20118;-69
2021/05/06 01:21:26;;;;;;;7.40;2.03;;;2.90;88.30;;;;;;4949661;28;20444;-70
2021/05/06 01:23:53;;;;;;;10.65;2.20;;;2.90;88.30;;;;;;4959476;28;20068;-69
2021/05/06 01:26:32;;;;;;;9.55;2.10;;;2.90;88.20;;;;;;4945553;28;20023;-70
2021/05/06 01:29:00;;;;;;;18.73;2.40;;;2.90;88.30;;;;;;4962576;28;20035;-70
2021/05/06 01:31:30;;;;;;;10.60;2.33;;;2.90;88.30;;;;;;4949391;28;20109;-73
2021/05/06 01:36:31;;;;;;;14.63;2.75;;;2.80;88.60;;;;;;4948816;28;20110;-72
2021/05/06 02:00:00;;;;;;;7.93;2.00;;;2.80;88.20;;;;;;4952444;28;20037;-73
2021/05/06 02:02:26;;;;;;;9.25;2.22;;;2.90;87.80;;;;;;4965874;28;20526;-72
2021/05/06 02:04:52;;;;;;;11.07;2.53;;;2.80;87.90;;;;;;4950387;28;20043;-73
2021/05/06 02:07:18;;;;;;;13.00;2.83;;;2.90;88.00;;;;;;4953790;29;20035;-73
2021/05/06 02:09:48;;;;;;;9.93;1.95;;;2.80;88.20;;;;;;4954596;29;20031;-73
2021/05/06 02:12:15;;;;;;;11.77;2.40;;;2.80;88.10;;;;;;4950847;28;20482;-74
2021/05/06 02:14:46;;;;;;;10.98;2.83;;;2.70;88.30;;;;;;4951858;28;20075;-73
2021/05/06 02:17:12;;;;;;;10.75;2.70;;;2.60;88.80;;;;;;4950732;29;20035;-72
2021/05/06 02:19:40;;;;;;;7.80;2.35;;;2.60;88.80;;;;;;4952406;28;20106;-72
2021/05/06 02:22:08;;;;;;;7.82;2.30;;;2.50;88.80;;;;;;4952549;28;20019;-72
2021/05/06 02:24:34;;;;;;;15.60;2.92;;;2.50;89.20;;;;;;4952377;28;20024;-73
2021/05/06 02:27:00;;;;;;;10.90;1.88;;;2.60;88.90;;;;;;4949881;28;20066;-74
2021/05/06 02:29:25;;;;;;;11.95;2.08;;;2.50;89.00;;;;;;4951508;28;20027;-73
2021/05/06 02:31:51;;;;;;;9.68;2.20;;;2.50;89.00;;;;;;4951800;28;20039;-73
2021/05/06 02:34:17;;;;;;;8.45;2.17;;;2.50;88.90;;;;;;4951493;28;20043;-73
2021/05/06 02:36:42;;;;;;;8.68;2.00;;;2.50;88.90;;;;;;4951312;28;20035;-73
2021/05/06 02:39:08;;;;;;;12.85;2.20;;;2.50;89.10;;;;;;4951095;28;20035;-73
2021/05/06 02:41:34;;;;;;;11.75;2.90;;;2.50;89.10;;;;;;4950338;29;20392;-72
2021/05/06 02:43:59;;;;;;;12.38;3.00;;;2.40;89.10;;;;;;4950802;28;20411;-73
2021/05/06 02:46:26;;;;;;;10.20;2.95;;;2.40;89.20;;;;;;4951454;28;20032;-72
2021/05/06 02:48:52;;;;;;;8.63;2.95;;;2.40;89.40;;;;;;4962154;28;20041;-73
2021/05/06 02:51:18;;;;;;;11.30;2.92;;;2.40;89.30;;;;;;4951530;28;20031;-73
2021/05/06 02:53:51;;;;;;;14.02;2.90;;;2.40;89.00;;;;;;4951950;28;20090;-73
2021/05/06 02:56:24;;;;;;;10.55;2.72;;;2.40;89.40;;;;;;4951611;28;20051;-73
2021/05/06 02:59:14;;;;;;;14.25;2.72;;;2.40;89.40;;;;;;4948992;28;20031;-73
2021/05/06 03:04:24;;;;;;;10.75;2.53;;;2.40;89.30;;;;;;4950759;28;20074;-73
2021/05/06 03:06:55;;;;;;;12.35;2.92;;;2.30;89.50;;;;;;4951872;28;20043;-73
2021/05/06 03:09:36;;;;;;;9.63;2.53;;;2.50;89.20;;;;;;4949881;28;20065;-73
2021/05/06 03:22:42;;;;;;;10.68;2.72;;;2.10;90.30;;;;;;4950833;28;20456;-73
2021/05/06 03:25:12;;;;;;;9.65;2.72;;;2.00;90.30;;;;;;4947464;28;20027;-72
2021/05/06 03:27:45;;;;;;;13.50;3.20;;;2.00;90.70;;;;;;4948234;28;20057;-73
2021/05/06 03:34:39;;;;;;;11.35;2.65;;;2.10;90.70;;;;;;4950470;28;20016;-73
2021/05/06 04:37:40;;;;;;;13.60;3.42;;;2.40;90.70;;;;;;4936487;28;20069;-74
2021/05/06 04:40:13;;;;;;;13.75;3.15;;;2.50;90.80;;;;;;4952884;28;20086;-73
2021/05/06 05:06:35;;;;;;;20.83;3.58;;;2.70;91.20;;;;;;4947829;28;20027;-73
2021/05/06 05:09:27;;;;;;;18.20;4.13;;;2.80;91.20;;;;;;4946543;28;20062;-73
2021/05/06 05:11:59;;;;;;;12.27;3.38;;;2.90;90.90;;;;;;4947590;28;20403;-73
2021/05/06 05:25:34;;;;;;;13.45;3.67;;;3.50;89.70;;;;;;4970326;28;20030;-73
2021/05/06 05:28:01;;;;;;;15.65;3.42;;;3.60;89.60;;;;;;4969364;28;20225;-72
2021/05/06 05:30:29;;;;;;;15.40;3.72;;;3.60;89.40;;;;;;4954615;28;20062;-72
2021/05/06 05:32:55;;;;;;;14.88;4.05;;;3.70;89.10;;;;;;4948435;28;20031;-73
2021/05/06 05:38:02;;;;;;;9.65;3.58;;;3.80;88.50;;;;;;4949836;28;20423;-73
2021/05/06 05:40:37;;;;;;;13.57;3.58;;;4.00;88.70;;;;;;4948779;28;20039;-73
2021/05/06 05:55:55;;;;;;;9.27;3.65;;;4.50;86.80;;;;;;4948198;28;20305;-73
2021/05/06 05:58:21;;;;;;;11.05;3.65;;;4.60;86.40;;;;;;4949296;28;20027;-73
2021/05/06 06:00:47;;;;;;;5.88;2.50;;;4.70;86.00;;;;;;4946513;28;20129;-72
2021/05/06 06:03:13;;;;;;;11.45;3.65;;;4.80;85.50;;;;;;4948175;28;20400;-73
2021/05/06 06:05:39;;;;;;;12.90;3.28;;;4.90;85.50;;;;;;4948538;28;20480;-73
2021/05/06 06:08:05;;;;;;;9.23;3.33;;;5.00;85.10;;;;;;4949570;29;20031;-74
2021/05/06 06:10:30;;;;;;;11.98;3.40;;;5.10;84.40;;;;;;4948732;29;20179;-73
2021/05/06 06:12:56;;;;;;;8.27;2.95;;;5.20;84.00;;;;;;4948657;28;20031;-73
2021/05/06 06:17:53;;;;;;;11.88;3.40;;;5.30;84.10;;;;;;4947007;28;20031;-73
2021/05/06 06:20:19;;;;;;;11.40;3.30;;;5.40;82.90;;;;;;4946357;28;20081;-74
2021/05/06 06:22:45;;;;;;;11.00;3.08;;;5.60;83.60;;;;;;4941346;29;20106;-73
2021/05/06 06:25:11;;;;;;;10.15;3.10;;;5.70;81.90;;;;;;4947825;28;20401;-73
2021/05/06 06:27:37;;;;;;;7.13;2.67;;;5.70;81.10;;;;;;4948895;28;20113;-73
2021/05/06 06:30:05;;;;;;;12.52;2.92;;;5.60;81.80;;;;;;4945721;28;20031;-72
2021/05/06 06:32:30;;;;;;;11.55;3.30;;;5.70;81.80;;;;;;4944757;28;20050;-73
2021/05/06 06:34:56;;;;;;;7.30;2.97;;;5.90;81.00;;;;;;4946780;28;20476;-73
2021/05/06 06:37:22;;;;;;;4.60;2.25;;;6.10;81.10;;;;;;4954124;28;20074;-73
2021/05/06 06:39:47;;;;;;;6.00;2.30;;;6.10;80.30;;;;;;4947507;29;20042;-73
2021/05/06 06:42:13;;;;;;;8.73;2.42;;;5.70;79.60;;;;;;4947117;29;20230;-73
2021/05/06 06:44:39;;;;;;;7.40;2.28;;;5.90;80.30;;;;;;4949728;28;20047;-73
2021/05/06 06:47:07;;;;;;;8.68;2.17;;;6.10;80.10;;;;;;4951726;28;20030;-74
2021/05/06 06:49:37;;;;;;;6.70;2.55;;;6.20;79.40;;;;;;4948966;28;20242;-73
2021/05/06 06:52:05;;;;;;;8.98;2.45;;;6.40;77.90;;;;;;4951240;28;20035;-73
2021/05/06 06:54:31;;;;;;;7.97;2.22;;;6.30;79.70;;;;;;4964923;28;20118;-73
2021/05/06 06:56:56;;;;;;;9.70;2.67;;;6.50;78.30;;;;;;4951491;29;20130;-73
2021/05/06 06:59:23;;;;;;;8.43;2.55;;;6.70;78.50;;;;;;4950764;29;20114;-73
2021/05/06 07:01:49;;;;;;;11.40;2.53;;;6.60;77.30;;;;;;4952485;28;20023;-72
2021/05/06 07:04:15;;;;;;;6.20;2.17;;;6.80;77.30;;;;;;4950604;28;20503;-73
2021/05/06 07:06:41;;;;;;;7.40;2.15;;;6.70;76.90;;;;;;4951644;28;20094;-72
2021/05/06 07:09:09;;;;;;;5.10;1.85;;;7.00;76.20;;;;;;4963244;28;20031;-73
2021/05/06 07:11:38;;;;;;;9.55;2.40;;;6.90;76.20;;;;;;4948591;29;20148;-73
2021/05/06 07:14:04;;;;;;;8.43;2.50;;;6.60;76.10;;;;;;4948930;29;20423;-73
2021/05/06 07:16:30;;;;;;;9.43;2.67;;;6.70;77.40;;;;;;4950904;28;20114;-72
2021/05/06 07:18:57;;;;;;;7.63;2.40;;;6.50;76.10;;;;;;4950210;28;20067;-74
2021/05/06 07:21:24;;;;;;;7.13;2.42;;;6.80;76.80;;;;;;4964239;28;20412;-73
2021/05/06 07:23:53;;;;;;;9.55;2.53;;;7.00;77.00;;;;;;4950522;28;20049;-72
2021/05/06 07:26:19;;;;;;;11.00;2.53;;;7.00;74.70;;;;;;4950438;28;20028;-73
2021/05/06 07:28:45;;;;;;;10.15;2.40;;;7.10;75.70;;;;;;4950880;29;20031;-72
2021/05/06 07:31:11;;;;;;;9.55;2.30;;;7.20;75.50;;;;;;4947425;28;20035;-73
2021/05/06 07:33:38;;;;;;;9.63;2.10;;;7.70;74.80;;;;;;4949576;28;20694;-73
2021/05/06 07:36:04;;;;;;;6.65;2.10;;;7.70;74.40;;;;;;4951348;28;20035;-72
2021/05/06 07:38:31;;;;;;;7.47;2.08;;;7.70;74.70;;;;;;4950987;28;20035;-70
2021/05/06 07:41:00;;;;;;;4.55;2.10;;;7.60;73.50;;;;;;4950546;28;20575;-71
2021/05/06 07:43:28;;;;;;;6.70;1.98;;;7.50;73.20;;;;;;4950861;29;20043;-71
2021/05/06 07:45:54;;;;;;;5.68;2.42;;;7.50;73.90;;;;;;4949108;28;20110;-73
2021/05/06 07:48:19;;;;;;;10.32;2.42;;;7.60;72.30;;;;;;4950763;29;20564;-72
2021/05/06 07:50:45;;;;;;;6.78;1.88;;;7.60;73.60;;;;;;4964525;28;20034;-71
2021/05/06 07:53:13;;;;;;;9.93;2.30;;;7.50;72.20;;;;;;4950012;29;20035;-72
2021/05/06 07:55:39;;;;;;;8.52;2.08;;;7.70;72.20;;;;;;4950808;28;20026;-73
2021/05/06 07:58:05;;;;;;;4.35;1.45;;;8.00;71.10;;;;;;4950376;29;20047;-72
2021/05/06 08:00:33;;;;;;;7.90;1.63;;;8.10;72.20;;;;;;4946905;28;20036;-72
2021/05/06 08:02:58;;;;;;;9.45;1.92;;;8.00;72.80;;;;;;4944805;28;20023;-73
2021/05/06 08:05:27;;;;;;;9.85;1.90;;;7.90;71.90;;;;;;4950537;28;20041;-72
2021/05/06 08:07:53;;;;;;;10.57;2.00;;;7.80;71.50;;;;;;4949626;28;20042;-73
2021/05/06 08:10:22;;;;;;;4.03;1.92;;;7.70;71.90;;;;;;4950173;28;20055;-72
2021/05/06 08:12:48;;;;;;;7.15;2.05;;;7.70;71.50;;;;;;4949561;28;20412;-73
2021/05/06 08:15:14;;;;;;;8.40;1.90;;;7.80;71.30;;;;;;4946813;28;20019;-72
2021/05/06 08:17:41;;;;;;;8.20;2.08;;;8.40;71.30;;;;;;4949787;29;20106;-71
2021/05/06 08:20:12;;;;;;;5.20;1.48;;;8.20;71.30;;;;;;4950274;29;20549;-73
2021/05/06 08:22:38;;;;;;;8.88;1.58;;;7.90;70.80;;;;;;4931557;29;20027;-74
2021/05/06 08:25:05;;;;;;;6.90;1.65;;;8.00;71.00;;;;;;4941359;28;20079;-73
2021/05/06 08:27:31;;;;;;;8.48;1.73;;;8.40;70.40;;;;;;4950255;28;20239;-73
2021/05/06 08:29:58;;;;;;;7.72;2.03;;;8.10;70.50;;;;;;4948837;28;20031;-73
2021/05/06 08:32:23;;;;;;;9.55;2.10;;;8.00;68.30;;;;;;4949221;28;20027;-73
2021/05/06 08:34:49;;;;;;;5.90;1.15;;;8.80;66.20;;;;;;4950087;28;20031;-72
2021/05/06 08:37:15;;;;;;;7.10;1.67;;;8.80;63.40;;;;;;4950518;28;20092;-72
2021/05/06 08:39:41;;;;;;;3.55;1.45;;;8.80;64.50;;;;;;4949097;29;20023;-73
2021/05/06 08:42:09;;;;;;;5.22;1.25;;;8.40;66.90;;;;;;4948861;28;20078;-73
2021/05/06 08:44:37;;;;;;;9.43;1.35;;;8.60;65.30;;;;;;4949785;28;20031;-72
2021/05/06 08:47:04;;;;;;;6.80;1.50;;;8.80;63.60;;;;;;4949952;29;20038;-72
2021/05/06 08:49:35;;;;;;;4.57;1.60;;;9.00;63.70;;;;;;4948183;28;20627;-72
2021/05/06 08:52:03;;;;;;;5.10;1.23;;;9.10;61.80;;;;;;4949530;28;20620;-73
2021/05/06 08:54:28;;;;;;;6.50;1.50;;;9.10;63.70;;;;;;4950275;28;20039;-72
2021/05/06 08:56:56;;;;;;;7.05;1.88;;;9.80;60.40;;;;;;4948203;28;20038;-72
2021/05/06 08:59:21;;;;;;;6.03;1.20;;;9.60;60.00;;;;;;4948118;29;20039;-72
2021/05/06 09:01:48;;;;;;;3.80;1.00;;;9.40;56.10;;;;;;4949166;28;20026;-72
2021/05/06 09:04:13;;;;;;;4.20;1.33;;;9.40;56.40;;;;;;4949085;28;20070;-73
2021/05/06 09:07:01;;;;;;;5.32;1.63;;;9.90;57.80;;;;;;4962181;28;20416;-72
2021/05/06 09:09:28;;;;;;;5.40;1.23;;;9.40;57.80;;;;;;4948299;28;20035;-73
2021/05/06 09:11:56;;;;;;;4.72;1.20;;;9.60;58.80;;;;;;4949405;29;20197;-75
2021/05/06 09:14:46;;;;;;;7.43;1.80;;;9.60;56.90;;;;;;4948386;28;20086;-73
2021/05/06 09:17:33;;;;;;;5.07;1.30;;;10.00;58.50;;;;;;4941872;28;20067;-73
2021/05/06 09:20:15;;;;;;;6.03;1.48;;;9.60;56.10;;;;;;4948095;28;20069;-72
2021/05/06 09:22:45;;;;;;;3.45;1.05;;;9.80;56.80;;;;;;4948960;28;20023;-73
2021/05/06 09:25:34;;;;;;;8.32;1.75;;;9.60;57.70;;;;;;4948044;28;20034;-75
2021/05/06 09:28:19;;;;;;;6.22;1.23;;;9.50;59.00;;;;;;4948682;29;20246;-72
2021/05/06 09:30:52;;;;;;;5.28;1.30;;;9.70;54.70;;;;;;4946145;28;20469;-73
2021/05/06 09:33:26;;;;;;;5.75;1.50;;;10.10;55.00;;;;;;4948246;28;20451;-74
2021/05/06 09:35:52;;;;;;;7.57;1.40;;;9.70;56.50;;;;;;4948266;28;20035;-73
2021/05/06 09:38:32;;;;;;;3.15;1.05;;;9.50;56.60;;;;;;4948469;28;20490;-73
2021/05/06 09:41:02;;;;;;;4.85;1.45;;;9.30;57.20;;;;;;4945369;28;20027;-72
2021/05/06 09:43:32;;;;;;;4.00;1.30;;;9.60;59.10;;;;;;4947771;28;20023;-75
2021/05/06 09:45:59;;;;;;;5.68;1.25;;;9.70;56.50;;;;;;4947180;28;20602;-72
2021/05/06 09:48:25;;;;;;;9.18;1.50;;;9.40;54.20;;;;;;4963248;28;20035;-72
2021/05/06 09:51:04;;;;;;;5.85;1.33;;;9.60;57.00;;;;;;4945089;28;20039;-72
2021/05/06 09:53:32;;;;;;;4.63;1.48;;;9.60;57.80;;;;;;4944272;28;20467;-74
2021/05/06 09:56:03;;;;;;;3.90;0.95;;;9.60;56.60;;;;;;4948899;28;20031;-72
2021/05/06 09:58:32;;;;;;;5.03;1.33;;;10.30;56.60;;;;;;4949201;28;20074;-72
2021/05/06 10:01:09;;;;;;;4.78;1.33;;;10.00;54.20;;;;;;4945883;28;20087;-72
2021/05/06 10:03:34;;;;;;;4.50;1.42;;;9.50;56.20;;;;;;4949319;28;20391;-73
2021/05/06 10:06:19;;;;;;;4.68;1.40;;;9.70;58.10;;;;;;4949411;28;20127;-71
2021/05/06 10:08:45;;;;;;;4.63;1.30;;;9.50;57.70;;;;;;4950541;29;20023;-72
2021/05/06 10:11:17;;;;;;;4.82;1.20;;;10.40;55.20;;;;;;4949110;28;20024;-72
2021/05/06 10:13:44;;;;;;;9.73;1.38;;;10.50;56.90;;;;;;4948951;28;20035;-72
2021/05/06 10:16:12;;;;;;;6.75;1.30;;;10.10;55.90;;;;;;4945906;28;20038;-72
2021/05/06 10:18:40;;;;;;;7.07;1.30;;;10.10;55.30;;;;;;4947356;28;20059;-72
2021/05/06 10:21:08;;;;;;;4.13;1.10;;;9.70;55.00;;;;;;4952587;28;20027;-72
2021/05/06 10:23:34;;;;;;;5.45;1.30;;;9.90;55.50;;;;;;4949997;28;20032;-73
2021/05/06 10:26:01;;;;;;;5.55;1.20;;;10.60;56.10;;;;;;4952779;28;20186;-72
2021/05/06 10:28:27;;;;;;;6.25;1.23;;;10.70;55.10;;;;;;4952374;28;20031;-72
2021/05/06 10:30:54;;;;;;;3.85;1.00;;;9.80;59.40;;;;;;4950942;29;20114;-73
2021/05/06 10:33:23;;;;;;;7.70;1.48;;;9.20;63.10;;;;;;4949637;28;20030;-72
2021/05/06 10:35:50;;;;;;;5.90;1.10;;;9.70;63.40;;;;;;4952006;28;20540;-73
2021/05/06 10:38:16;;;;;;;6.43;1.40;;;10.20;62.40;;;;;;4951364;28;20491;-72
2021/05/06 10:40:42;;;;;;;4.20;1.10;;;10.60;60.30;;;;;;4950869;29;20023;-73
2021/05/06 10:43:23;;;;;;;3.50;1.00;;;10.90;59.20;;;;;;4951942;29;20027;-73
2021/05/06 10:46:15;;;;;;;3.70;1.08;;;10.50;61.50;;;;;;4951942;28;20106;-74
2021/05/06 10:49:00;;;;;;;5.97;1.00;;;9.60;60.10;;;;;;4951383;28;20223;-73
2021/05/06 10:51:39;;;;;;;6.45;1.27;;;9.40;61.90;;;;;;4951451;28;20464;-74
2021/05/06 10:54:45;;;;;;;3.90;1.02;;;9.50;62.90;;;;;;4946576;28;20512;-72
2021/05/06 10:57:11;;;;;;;3.28;1.23;;;10.00;60.80;;;;;;4949376;29;20158;-73
2021/05/06 10:59:47;;;;;;;4.90;1.02;;;10.00;60.50;;;;;;4945582;28;20127;-74
2021/05/06 11:02:42;;;;;;;4.10;1.05;;;10.40;58.50;;;;;;4949801;28;20116;-74
2021/05/06 11:05:12;;;;;;;3.85;0.88;;;10.60;58.00;;;;;;4947400;28;20171;-73
2021/05/06 11:07:38;;;;;;;4.95;1.20;;;11.80;56.30;;;;;;4962059;28;20031;-73
2021/05/06 11:10:05;;;;;;;2.65;1.05;;;12.00;49.80;;;;;;4951421;28;20173;-73
2021/05/06 11:12:33;;;;;;;6.80;1.08;;;11.90;45.40;;;;;;4951507;28;20037;-75
2021/05/06 11:14:58;;;;;;;2.17;0.93;;;10.90;48.70;;;;;;4950740;28;20034;-73
2021/05/06 11:17:26;;;;;;;3.92;1.48;;;10.50;48.90;;;;;;4952126;29;20168;-73
2021/05/06 11:19:51;;;;;;;4.72;1.00;;;10.10;52.90;;;;;;4950905;28;20845;-74
2021/05/06 11:22:46;;;;;;;4.75;0.90;;;10.20;53.00;;;;;;4951274;28;20023;-73
2021/05/06 11:25:37;;;;;;;5.22;1.40;;;10.60;52.70;;;;;;4950793;28;20058;-74
2021/05/06 11:28:19;;;;;;;5.68;1.27;;;11.60;48.80;;;;;;4951105;28;20569;-73
2021/05/06 11:30:51;;;;;;;4.05;1.30;;;11.30;51.60;;;;;;4948285;28;20103;-72
2021/05/06 11:33:16;;;;;;;3.78;1.40;;;10.70;52.20;;;;;;4950809;28;20037;-72
2021/05/06 11:36:10;;;;;;;4.47;1.08;;;10.10;49.10;;;;;;4951619;28;20031;-73
2021/05/06 11:38:38;;;;;;;6.60;1.00;;;9.90;53.30;;;;;;4950858;28;20031;-71
2021/05/06 11:41:06;;;;;;;2.47;0.75;;;10.00;54.10;;;;;;4947418;28;20383;-73
2021/05/06 11:43:32;;;;;;;2.95;0.55;;;9.80;53.10;;;;;;4949046;28;20074;-72
2021/05/06 11:46:15;;;;;;;4.57;1.00;;;9.30;55.20;;;;;;4950989;28;20028;-73
2021/05/06 11:48:45;;;;;;;3.33;0.60;;;9.00;57.50;;;;;;4950980;29;20034;-73
2021/05/06 11:51:30;;;;;;;6.00;1.08;;;9.10;60.20;;;;;;4950909;28;20023;-73
2021/05/06 11:54:01;;;;;;;5.30;0.93;;;9.50;61.30;;;;;;4961159;28;20027;-73
2021/05/06 11:56:27;;;;;;;;;;;10.10;60.70;;;;;;4951442;28;20527;-73
2021/05/06 11:58:53;;;;;;;6.55;0.90;;;10.70;58.30;;;;;;4950248;28;19914;-73
2021/05/06 12:01:26;;;;;;;2.90;1.27;;;10.70;55.60;;;;;;4960716;28;20051;-74
2021/05/06 12:03:52;;;;;;;2.58;0.80;;;11.30;57.10;;;;;;4927578;28;20369;-74
2021/05/06 12:06:36;;;;;;;4.50;0.93;;;11.50;53.50;;;;;;4944984;28;20263;-73
2021/05/06 12:09:07;;;;;;;3.22;0.90;;;11.20;53.20;;;;;;4947857;28;20043;-73
2021/05/06 12:11:40;;;;;;;5.53;1.10;;;11.00;54.00;;;;;;4947213;28;20031;-73
2021/05/06 12:14:08;;;;;;;9.40;1.42;;;11.60;54.10;;;;;;4947149;28;20043;-73
2021/05/06 12:16:35;;;;;;;3.50;1.00;;;11.50;56.40;;;;;;4946222;28;20027;-73
2021/05/06 12:19:14;;;;;;;3.20;1.00;;;10.90;56.50;;;;;;4945782;28;20047;-73
2021/05/06 12:21:51;;;;;;;3.00;0.80;;;11.00;55.10;;;;;;4948033;28;20063;-74
2021/05/06 12:24:45;;;;;;;4.72;0.90;;;11.10;56.50;;;;;;4947302;28;20058;-72
2021/05/06 12:27:42;;;;;;;2.97;0.80;;;11.80;58.30;;;;;;4946176;28;20050;-74
2021/05/06 12:30:11;;;;;;;5.20;0.93;;;12.50;52.40;;;;;;4932264;28;20143;-74
2021/05/06 12:32:43;;;;;;;3.75;0.88;;;12.70;51.30;;;;;;4943409;28;20098;-74
2021/05/06 12:35:09;;;;;;;2.60;0.93;;;13.00;50.40;;;;;;4947313;28;20503;-76
2021/05/06 12:37:37;;;;;;;3.00;0.90;;;12.90;47.40;;;;;;4945758;28;20054;-75
2021/05/06 12:40:09;;;;;;;3.17;0.80;;;13.20;44.30;;;;;;4946144;28;20038;-76
2021/05/06 12:42:36;;;;;;;3.55;0.80;;;13.50;43.90;;;;;;4946156;28;20774;-74
2021/05/06 12:45:04;;;;;;;3.00;0.80;;;13.40;42.90;;;;;;4947906;28;20115;-75
2021/05/06 12:47:33;;;;;;;6.43;1.02;;;13.80;44.10;;;;;;4950384;28;20034;-74
2021/05/06 12:50:14;;;;;;;4.35;0.90;;;13.90;44.80;;;;;;4945657;28;20027;-73
2021/05/06 12:52:44;;;;;;;2.90;0.70;;;14.60;42.20;;;;;;4945299;28;20055;-75
2021/05/06 12:55:21;;;;;;;3.80;0.80;;;14.40;42.50;;;;;;4961668;28;20089;-76
2021/05/06 12:58:15;;;;;;;5.50;0.95;;;14.50;42.00;;;;;;4945395;28;20031;-77
2021/05/06 13:00:43;;;;;;;2.20;0.93;;;14.80;40.40;;;;;;4946453;28;20034;-75
2021/05/06 13:03:16;;;;;;;6.45;1.00;;;14.30;41.30;;;;;;4946613;28;20023;-71
2021/05/06 13:05:47;;;;;;;4.90;0.85;;;13.50;41.90;;;;;;4946025;28;20038;-75
2021/05/06 13:08:13;;;;;;;6.03;0.90;;;14.70;41.00;;;;;;4946886;28;20094;-74
2021/05/06 13:10:42;;;;;;;3.58;0.88;;;14.50;38.80;;;;;;4946661;28;20023;-72
2021/05/06 13:13:10;;;;;;;5.50;0.88;;;14.00;40.80;;;;;;4944529;28;20373;-74
2021/05/06 13:15:49;;;;;;;5.90;1.05;;;13.10;43.10;;;;;;4946409;28;20031;-74
2021/05/06 13:18:15;;;;;;;1.38;0.45;;;12.40;43.10;;;;;;4946737;28;20110;-74
2021/05/06 13:20:42;;;;;;;1.83;0.60;;;10.60;49.40;;;;;;4945635;28;20113;-74
2021/05/06 13:23:11;;;;;;;2.17;0.77;;;10.20;52.60;;;;;;4940510;28;20420;-72
2021/05/06 13:25:51;;;;;;;0.80;0.57;;;10.50;51.90;;;;;;4944593;28;20054;-74
2021/05/06 13:28:19;;;;;;;1.40;0.60;;;10.40;52.40;;;;;;4943597;28;20027;-74
2021/05/06 13:30:46;;;;;;;1.65;0.65;;;11.30;52.10;;;;;;4947211;28;20019;-74
2021/05/06 13:33:18;;;;;;;1.80;0.55;;;11.50;52.10;;;;;;4944991;28;20027;-74
2021/05/06 13:36:10;;;;;;;1.90;0.80;;;13.00;49.60;;;;;;4944034;28;20477;-74
2021/05/06 13:39:01;;;;;;;3.95;0.80;;;13.90;47.20;;;;;;4946005;28;20106;-78
2021/05/06 13:41:27;;;;;;;2.10;0.80;;;14.10;46.90;;;;;;4959831;28;20028;-75
2021/05/06 13:43:58;;;;;;;3.08;0.80;;;15.20;42.10;;;;;;4945476;28;20032;-77
2021/05/06 13:46:24;;;;;;;0.98;0.50;;;14.60;40.70;;;;;;4945349;28;20058;-75
2021/05/06 13:48:51;;;;;;;4.25;0.90;;;14.80;38.30;;;;;;4945825;28;20035;-75
2021/05/06 13:51:18;;;;;;;4.63;0.63;;;15.00;38.70;;;;;;4945217;28;20114;-75
2021/05/06 13:53:46;;;;;;;2.40;0.70;;;15.70;39.40;;;;;;4946123;28;20055;-75
2021/05/06 13:56:12;;;;;;;3.13;0.80;;;15.70;39.20;;;;;;4944703;28;20231;-75
2021/05/06 13:58:38;;;;;;;3.53;0.93;;;16.20;39.80;;;;;;4945760;28;20686;-75
2021/05/06 14:01:05;;;;;;;2.30;0.65;;;15.10;38.00;;;;;;4944693;28;20151;-75
2021/05/06 14:03:32;;;;;;;3.65;0.68;;;15.70;38.50;;;;;;4945836;28;20203;-76
2021/05/06 14:05:58;;;;;;;1.77;0.82;;;15.60;38.80;;;;;;4945665;28;20035;-75
2021/05/06 14:08:25;;;;;;;2.33;0.60;;;15.30;38.90;;;;;;4946021;28;20032;-77
2021/05/06 14:10:51;;;;;;;1.38;0.65;;;14.60;40.50;;;;;;4943611;28;20218;-75
2021/05/06 14:13:17;;;;;;;2.13;0.70;;;14.40;38.40;;;;;;4945951;28;20445;-75
2021/05/06 14:15:47;;;;;;;3.30;0.70;;;14.60;39.20;;;;;;4946883;28;20055;-76
2021/05/06 14:18:13;;;;;;;4.15;0.88;;;14.70;41.10;;;;;;4944487;28;20118;-75
2021/05/06 14:20:39;;;;;;;3.42;0.93;;;14.90;38.80;;;;;;4943370;28;20029;-76
2021/05/06 14:23:06;;;;;;;4.15;1.05;;;13.90;42.50;;;;;;4942844;28;20031;-76
2021/05/06 14:25:34;;;;;;;3.00;0.80;;;13.60;42.70;;;;;;4940928;28;20504;-75
2021/05/06 14:28:01;;;;;;;2.20;0.70;;;13.40;45.10;;;;;;4941459;28;20089;-74
2021/05/06 14:30:27;;;;;;;4.00;0.85;;;13.00;44.00;;;;;;4940777;28;20583;-75
2021/05/06 14:32:53;;;;;;;3.55;0.90;;;12.10;47.10;;;;;;4960892;28;20054;-75
2021/05/06 14:35:18;;;;;;;5.00;0.90;;;11.90;48.70;;;;;;4946220;28;20031;-74
2021/05/06 14:37:44;;;;;;;4.65;1.20;;;11.80;49.10;;;;;;4946783;28;20051;-75
2021/05/06 14:40:11;;;;;;;3.97;0.98;;;11.40;50.40;;;;;;4944757;28;20035;-75
2021/05/06 14:42:36;;;;;;;4.78;1.08;;;11.10;50.80;;;;;;4945552;28;20027;-75
2021/05/06 14:45:04;;;;;;;5.35;1.20;;;10.90;51.50;;;;;;4946999;28;20113;-74
2021/05/06 14:47:30;;;;;;;3.95;1.10;;;10.90;51.50;;;;;;4948741;28;20062;-74
2021/05/06 14:49:57;;;;;;;3.03;1.08;;;10.60;50.90;;;;;;4946584;28;20081;-74
2021/05/06 14:52:23;;;;;;;2.88;0.90;;;10.40;50.70;;;;;;4945110;28;20090;-74
2021/05/06 14:54:49;;;;;;;2.90;1.10;;;10.20;51.60;;;;;;4946990;28;20077;-75
2021/05/06 14:57:15;;;;;;;4.88;1.35;;;9.90;53.60;;;;;;4945134;28;20296;-72
2021/05/06 14:59:40;;;;;;;2.47;1.00;;;9.10;62.60;;;;;;4945230;28;20027;-72
2021/05/06 15:02:06;;;;;;;3.95;1.13;;;8.30;67.60;;;;;;4944795;28;20072;-73
2021/05/06 15:04:32;;;;;;;4.85;1.30;;;8.00;69.80;;;;;;4946224;28;20027;-73
2021/05/06 15:06:57;;;;;;;5.60;1.50;;;7.60;74.10;;;;;;4947409;28;20054;-73
2021/05/06 15:09:25;;;;;;;3.80;1.45;;;7.30;77.00;;;;;;4949461;28;20039;-72
2021/05/06 15:11:51;;;;;;;2.53;1.25;;;7.00;80.50;;;;;;4947536;28;20042;-72
2021/05/06 15:14:16;;;;;;;6.05;1.73;;;6.50;82.80;;;;;;4949483;28;20031;-74
2021/05/06 15:16:42;;;;;;;5.47;1.95;;;6.40;84.40;;;;;;4950431;28;20181;-70
2021/05/06 15:19:07;;;;;;;6.50;2.10;;;6.30;85.00;;;;;;4949532;28;20047;-73
2021/05/06 15:21:33;;;;;;;3.60;1.77;;;6.30;85.30;;;;;;4949915;29;20023;-72
2021/05/06 15:23:59;;;;;;;3.75;1.77;;;6.40;86.20;;;;;;4950815;29;20396;-75
2021/05/06 15:26:24;;;;;;;3.28;2.08;;;6.50;86.50;;;;;;4949080;28;20512;-72
2021/05/06 15:28:51;;;;;;;3.92;2.00;;;6.30;85.90;;;;;;4949602;29;20071;-73
2021/05/06 15:31:18;;;;;;;3.45;1.90;;;6.30;86.30;;;;;;4950360;28;20395;-73
2021/05/06 15:33:43;;;;;;;5.88;1.92;;;6.30;87.00;;;;;;4950838;28;20070;-73
2021/05/06 15:36:11;;;;;;;4.03;1.88;;;6.20;87.00;;;;;;4950681;28;20106;-73
2021/05/06 15:38:37;;;;;;;7.07;2.17;;;6.20;88.00;;;;;;4950037;28;20159;-72
2021/05/06 15:41:03;;;;;;;4.20;1.88;;;6.20;88.20;;;;;;4952210;28;20113;-73
2021/05/06 15:43:28;;;;;;;9.90;2.42;;;6.20;87.50;;;;;;4949755;28;20054;-74
2021/05/06 15:45:55;;;;;;;5.50;2.40;;;6.40;88.70;;;;;;4950409;28;20495;-73
2021/05/06 15:48:21;;;;;;;14.18;5.70;;;6.60;89.40;;;;;;4948491;28;20414;-74
2021/05/06 15:50:47;;;;;;;5.90;2.25;;;7.00;89.70;;;;;;4950141;28;20035;-75
2021/05/06 15:53:12;;;;;;;4.90;1.77;;;7.30;89.60;;;;;;4950199;28;20023;-73
2021/05/06 15:55:38;;;;;;;6.03;2.10;;;7.50;87.30;;;;;;4949510;28;20107;-73
2021/05/06 15:58:05;;;;;;;5.65;2.15;;;7.80;85.20;;;;;;4948452;28;20023;-73
2021/05/06 16:00:32;;;;;;;4.28;2.10;;;7.80;86.40;;;;;;4948414;28;20046;-74
2021/05/06 16:03:03;;;;;;;9.70;1.88;;;8.30;86.80;;;;;;4947411;28;20023;-74
2021/05/06 16:05:29;;;;;;;5.20;1.83;;;8.80;85.30;;;;;;4947206;28;20547;-74
2021/05/06 16:07:56;;;;;;;3.92;1.98;;;9.20;85.30;;;;;;4948275;28;20769;-74
2021/05/06 16:10:22;;;;;;;2.75;1.42;;;9.50;83.90;;;;;;4948471;28;20075;-74
2021/05/06 16:12:48;;;;;;;3.20;1.95;;;9.50;81.70;;;;;;4947933;28;20043;-74
2021/05/06 16:15:14;;;;;;;2.72;1.33;;;9.60;81.20;;;;;;4947867;28;20034;-73
2021/05/06 16:17:41;;;;;;;5.55;1.58;;;9.50;79.10;;;;;;4947943;28;20031;-73
2021/05/06 16:20:14;;;;;;;2.35;1.17;;;9.00;78.10;;;;;;4946997;28;20354;-74
2021/05/06 16:22:41;;;;;;;4.70;1.30;;;8.80;75.80;;;;;;4947829;28;20039;-74
2021/05/06 16:25:07;;;;;;;3.50;1.40;;;8.90;78.90;;;;;;4948500;28;20516;-74
2021/05/06 16:27:33;;;;;;;4.05;1.60;;;9.10;80.00;;;;;;4949132;28;20106;-74
2021/05/06 16:29:58;;;;;;;2.72;1.23;;;8.80;81.30;;;;;;4946791;28;20030;-73
2021/05/06 16:32:24;;;;;;;4.60;1.48;;;8.40;81.30;;;;;;4947911;28;20415;-73